sensor_id;sensor_type;location;lat;lon;timestamp;temperature;humidity
5705;DHT22;2877;48.238;11.160;2023-05-29T00:02:06;10.70;99.90
5705;DHT22;2877;48.238;11.160;2023-05-29T00:04:32;10.70;99.90
5705;DHT22;2877;48.238;11.160;2023-05-29T00:06:57;10.70;99.90
5705;DHT22;2877;48.238;11.160;2023-05-29T00:09:23;10.70;99.90
5705;DHT22;2877;48.238;11.160;2023-05-29T00:11:48;10.70;99.90
5705;DHT22;2877;48.238;11.160;2023-05-29T00:14:18;10.70;99.90
5705;DHT22;2877;48.238;11.160;2023-05-29T00:16:48;10.60;99.90
5705;DHT22;2877;48.238;11.160;2023-05-29T00:19:14;10.50;99.90
5705;DHT22;2877;48.238;11.160;2023-05-29T00:21:42;10.50;99.90
5705;DHT22;2877;48.238;11.160;2023-05-29T00:24:08;10.50;99.90
5705;DHT22;2877;48.238;11.160;2023-05-29T00:26:33;10.40;99.90
5705;DHT22;2877;48.238;11.160;2023-05-29T00:28:59;10.40;99.90
5705;DHT22;2877;48.238;11.160;2023-05-29T00:31:24;10.30;99.90
5705;DHT22;2877;48.238;11.160;2023-05-29T00:33:50;10.30;99.90
5705;DHT22;2877;48.238;11.160;2023-05-29T00:36:16;10.30;99.90
5705;DHT22;2877;48.238;11.160;2023-05-29T00:38:41;10.30;99.90
5705;DHT22;2877;48.238;11.160;2023-05-29T00:41:07;10.30;99.90
5705;DHT22;2877;48.238;11.160;2023-05-29T00:43:32;10.20;99.90
5705;DHT22;2877;48.238;11.160;2023-05-29T00:45:58;10.20;99.90
5705;DHT22;2877;48.238;11.160;2023-05-29T00:48:24;10.20;99.90
5705;DHT22;2877;48.238;11.160;2023-05-29T00:50:50;10.10;99.90
5705;DHT22;2877;48.238;11.160;2023-05-29T00:53:16;10.10;99.90
5705;DHT22;2877;48.238;11.160;2023-05-29T00:55:42;10.00;99.90
5705;DHT22;2877;48.238;11.160;2023-05-29T00:58:08;10.00;99.90
5705;DHT22;2877;48.238;11.160;2023-05-29T01:00:34;10.00;99.90
5705;DHT22;2877;48.238;11.160;2023-05-29T01:03:03;10.00;99.90
5705;DHT22;2877;48.238;11.160;2023-05-29T01:05:33;10.00;99.90
5705;DHT22;2877;48.238;11.160;2023-05-29T01:07:58;9.90;99.90
5705;DHT22;2877;48.238;11.160;2023-05-29T01:10:26;9.90;99.90
5705;DHT22;2877;48.238;11.160;2023-05-29T01:12:54;9.80;99.90
5705;DHT22;2877;48.238;11.160;2023-05-29T01:15:29;9.80;99.90
5705;DHT22;2877;48.238;11.160;2023-05-29T01:18:07;9.80;99.90
5705;DHT22;2877;48.238;11.160;2023-05-29T01:28:28;9.90;99.90
5705;DHT22;2877;48.238;11.160;2023-05-29T01:30:57;9.90;99.90
5705;DHT22;2877;48.238;11.160;2023-05-29T01:33:24;9.90;99.90
5705;DHT22;2877;48.238;11.160;2023-05-29T01:35:51;9.80;99.90
5705;DHT22;2877;48.238;11.160;2023-05-29T01:38:16;9.70;99.90
5705;DHT22;2877;48.238;11.160;2023-05-29T01:40:42;9.60;99.90
5705;DHT22;2877;48.238;11.160;2023-05-29T01:43:07;9.50;99.90
5705;DHT22;2877;48.238;11.160;2023-05-29T01:45:34;9.50;99.90
5705;DHT22;2877;48.238;11.160;2023-05-29T01:48:00;9.40;99.90
5705;DHT22;2877;48.238;11.160;2023-05-29T01:50:26;9.40;99.90
5705;DHT22;2877;48.238;11.160;2023-05-29T01:52:52;9.40;99.90
5705;DHT22;2877;48.238;11.160;2023-05-29T01:55:18;9.40;99.90
5705;DHT22;2877;48.238;11.160;2023-05-29T01:57:44;9.40;99.90
5705;DHT22;2877;48.238;11.160;2023-05-29T02:00:11;9.40;99.90
5705;DHT22;2877;48.238;11.160;2023-05-29T02:02:40;9.30;99.90
5705;DHT22;2877;48.238;11.160;2023-05-29T02:05:07;9.20;99.90
5705;DHT22;2877;48.238;11.160;2023-05-29T02:07:33;9.20;99.90
5705;DHT22;2877;48.238;11.160;2023-05-29T02:09:59;9.20;99.90
5705;DHT22;2877;48.238;11.160;2023-05-29T02:12:24;9.10;99.90
5705;DHT22;2877;48.238;11.160;2023-05-29T02:14:50;9.00;99.90
5705;DHT22;2877;48.238;11.160;2023-05-29T02:17:16;9.00;99.90
5705;DHT22;2877;48.238;11.160;2023-05-29T02:19:41;9.10;99.90
5705;DHT22;2877;48.238;11.160;2023-05-29T02:22:07;9.00;99.90
5705;DHT22;2877;48.238;11.160;2023-05-29T02:24:33;9.00;99.90
5705;DHT22;2877;48.238;11.160;2023-05-29T02:26:58;9.00;99.90
5705;DHT22;2877;48.238;11.160;2023-05-29T02:29:24;9.00;99.90
5705;DHT22;2877;48.238;11.160;2023-05-29T02:31:49;9.10;99.90
5705;DHT22;2877;48.238;11.160;2023-05-29T02:34:15;9.00;99.90
5705;DHT22;2877;48.238;11.160;2023-05-29T02:36:40;9.00;99.90
5705;DHT22;2877;48.238;11.160;2023-05-29T02:39:06;9.00;99.90
5705;DHT22;2877;48.238;11.160;2023-05-29T02:41:31;9.00;99.90
5705;DHT22;2877;48.238;11.160;2023-05-29T02:43:57;8.90;99.90
5705;DHT22;2877;48.238;11.160;2023-05-29T02:46:22;8.90;99.90
5705;DHT22;2877;48.238;11.160;2023-05-29T02:48:48;8.90;99.90
5705;DHT22;2877;48.238;11.160;2023-05-29T02:51:14;8.80;99.90
5705;DHT22;2877;48.238;11.160;2023-05-29T02:53:39;8.80;99.90
5705;DHT22;2877;48.238;11.160;2023-05-29T02:56:07;8.80;99.90
5705;DHT22;2877;48.238;11.160;2023-05-29T02:58:33;8.70;99.90
5705;DHT22;2877;48.238;11.160;2023-05-29T03:01:01;8.70;99.90
5705;DHT22;2877;48.238;11.160;2023-05-29T03:03:29;8.60;99.90
5705;DHT22;2877;48.238;11.160;2023-05-29T03:05:55;8.60;99.90
5705;DHT22;2877;48.238;11.160;2023-05-29T03:08:20;8.50;99.90
5705;DHT22;2877;48.238;11.160;2023-05-29T03:10:46;8.50;99.90
5705;DHT22;2877;48.238;11.160;2023-05-29T03:13:13;8.50;99.90
5705;DHT22;2877;48.238;11.160;2023-05-29T03:15:38;8.50;99.90
5705;DHT22;2877;48.238;11.160;2023-05-29T03:18:04;8.50;99.90
5705;DHT22;2877;48.238;11.160;2023-05-29T03:20:29;8.40;99.90
5705;DHT22;2877;48.238;11.160;2023-05-29T03:22:55;8.40;99.90
5705;DHT22;2877;48.238;11.160;2023-05-29T03:25:21;8.40;99.90
5705;DHT22;2877;48.238;11.160;2023-05-29T03:27:46;8.50;99.90
5705;DHT22;2877;48.238;11.160;2023-05-29T03:30:12;8.60;99.90
5705;DHT22;2877;48.238;11.160;2023-05-29T03:32:38;8.60;99.90
5705;DHT22;2877;48.238;11.160;2023-05-29T03:35:03;8.70;99.90
5705;DHT22;2877;48.238;11.160;2023-05-29T03:37:29;8.70;99.90
5705;DHT22;2877;48.238;11.160;2023-05-29T03:39:55;8.70;99.90
5705;DHT22;2877;48.238;11.160;2023-05-29T03:42:21;8.60;99.90
5705;DHT22;2877;48.238;11.160;2023-05-29T03:44:46;8.60;99.90
5705;DHT22;2877;48.238;11.160;2023-05-29T03:47:12;8.60;99.90
5705;DHT22;2877;48.238;11.160;2023-05-29T03:49:37;8.50;99.90
5705;DHT22;2877;48.238;11.160;2023-05-29T03:52:03;8.50;99.90
5705;DHT22;2877;48.238;11.160;2023-05-29T03:54:29;8.50;99.90
5705;DHT22;2877;48.238;11.160;2023-05-29T03:56:54;8.50;99.90
5705;DHT22;2877;48.238;11.160;2023-05-29T03:59:20;8.50;99.90
5705;DHT22;2877;48.238;11.160;2023-05-29T04:01:46;8.50;99.90
5705;DHT22;2877;48.238;11.160;2023-05-29T04:04:11;8.50;99.90
5705;DHT22;2877;48.238;11.160;2023-05-29T04:06:37;8.60;99.90
5705;DHT22;2877;48.238;11.160;2023-05-29T04:09:05;8.60;99.90
5705;DHT22;2877;48.238;11.160;2023-05-29T04:11:34;8.60;99.90
5705;DHT22;2877;48.238;11.160;2023-05-29T04:14:00;8.70;99.90
5705;DHT22;2877;48.238;11.160;2023-05-29T04:16:27;8.80;99.90
5705;DHT22;2877;48.238;11.160;2023-05-29T04:18:53;8.90;99.90
5705;DHT22;2877;48.238;11.160;2023-05-29T04:21:19;9.00;99.90
5705;DHT22;2877;48.238;11.160;2023-05-29T04:23:44;9.10;99.90
5705;DHT22;2877;48.238;11.160;2023-05-29T04:26:10;9.30;99.90
5705;DHT22;2877;48.238;11.160;2023-05-29T04:28:35;9.40;99.90
5705;DHT22;2877;48.238;11.160;2023-05-29T04:31:03;9.60;99.90
5705;DHT22;2877;48.238;11.160;2023-05-29T04:33:28;9.70;99.90
5705;DHT22;2877;48.238;11.160;2023-05-29T04:35:54;9.80;99.90
5705;DHT22;2877;48.238;11.160;2023-05-29T04:38:20;9.80;99.90
5705;DHT22;2877;48.238;11.160;2023-05-29T04:40:50;9.80;99.90
5705;DHT22;2877;48.238;11.160;2023-05-29T04:43:16;9.90;99.90
5705;DHT22;2877;48.238;11.160;2023-05-29T04:45:41;10.00;99.90
5705;DHT22;2877;48.238;11.160;2023-05-29T04:48:08;10.00;99.90
5705;DHT22;2877;48.238;11.160;2023-05-29T04:50:34;10.20;99.90
5705;DHT22;2877;48.238;11.160;2023-05-29T04:52:59;10.30;99.90
5705;DHT22;2877;48.238;11.160;2023-05-29T04:55:25;10.40;99.90
5705;DHT22;2877;48.238;11.160;2023-05-29T04:57:51;10.50;99.90
5705;DHT22;2877;48.238;11.160;2023-05-29T05:00:17;10.70;99.90
5705;DHT22;2877;48.238;11.160;2023-05-29T05:02:44;10.90;99.90
5705;DHT22;2877;48.238;11.160;2023-05-29T05:05:10;11.00;99.90
5705;DHT22;2877;48.238;11.160;2023-05-29T05:07:36;11.10;99.90
5705;DHT22;2877;48.238;11.160;2023-05-29T05:10:03;11.30;99.90
5705;DHT22;2877;48.238;11.160;2023-05-29T05:12:28;11.40;99.90
5705;DHT22;2877;48.238;11.160;2023-05-29T05:14:54;11.50;99.90
5705;DHT22;2877;48.238;11.160;2023-05-29T05:17:19;11.60;99.90
5705;DHT22;2877;48.238;11.160;2023-05-29T05:19:45;11.70;99.90
5705;DHT22;2877;48.238;11.160;2023-05-29T05:22:11;11.70;99.90
5705;DHT22;2877;48.238;11.160;2023-05-29T05:24:36;11.80;99.90
5705;DHT22;2877;48.238;11.160;2023-05-29T05:27:03;11.90;99.90
5705;DHT22;2877;48.238;11.160;2023-05-29T05:29:28;12.00;99.90
5705;DHT22;2877;48.238;11.160;2023-05-29T05:31:54;12.20;99.90
5705;DHT22;2877;48.238;11.160;2023-05-29T05:34:20;12.40;99.90
5705;DHT22;2877;48.238;11.160;2023-05-29T05:36:45;12.60;99.90
5705;DHT22;2877;48.238;11.160;2023-05-29T05:39:11;12.80;99.90
5705;DHT22;2877;48.238;11.160;2023-05-29T05:41:36;13.00;99.90
5705;DHT22;2877;48.238;11.160;2023-05-29T05:44:02;13.10;99.90
5705;DHT22;2877;48.238;11.160;2023-05-29T05:46:27;13.30;99.90
5705;DHT22;2877;48.238;11.160;2023-05-29T05:48:54;13.40;99.90
5705;DHT22;2877;48.238;11.160;2023-05-29T05:51:22;13.60;99.90
5705;DHT22;2877;48.238;11.160;2023-05-29T05:53:48;13.70;99.90
5705;DHT22;2877;48.238;11.160;2023-05-29T05:56:14;13.80;99.90
5705;DHT22;2877;48.238;11.160;2023-05-29T05:58:39;14.00;99.90
5705;DHT22;2877;48.238;11.160;2023-05-29T06:01:05;14.10;99.90
5705;DHT22;2877;48.238;11.160;2023-05-29T06:03:32;14.20;99.90
5705;DHT22;2877;48.238;11.160;2023-05-29T06:05:58;14.30;99.90
5705;DHT22;2877;48.238;11.160;2023-05-29T06:08:24;14.40;99.90
5705;DHT22;2877;48.238;11.160;2023-05-29T06:10:49;14.60;99.90
5705;DHT22;2877;48.238;11.160;2023-05-29T06:13:15;14.80;99.90
5705;DHT22;2877;48.238;11.160;2023-05-29T06:15:42;14.90;99.90
5705;DHT22;2877;48.238;11.160;2023-05-29T06:18:08;15.00;99.90
5705;DHT22;2877;48.238;11.160;2023-05-29T06:20:34;15.20;99.90
5705;DHT22;2877;48.238;11.160;2023-05-29T06:22:59;15.20;99.90
5705;DHT22;2877;48.238;11.160;2023-05-29T06:25:25;15.40;99.90
5705;DHT22;2877;48.238;11.160;2023-05-29T06:28:01;15.50;99.90
5705;DHT22;2877;48.238;11.160;2023-05-29T06:30:27;15.70;99.90
5705;DHT22;2877;48.238;11.160;2023-05-29T06:32:53;15.80;99.90
5705;DHT22;2877;48.238;11.160;2023-05-29T06:35:18;15.90;99.90
5705;DHT22;2877;48.238;11.160;2023-05-29T06:37:45;16.00;99.90
5705;DHT22;2877;48.238;11.160;2023-05-29T06:40:12;16.00;99.90
5705;DHT22;2877;48.238;11.160;2023-05-29T06:42:37;16.20;99.90
5705;DHT22;2877;48.238;11.160;2023-05-29T06:45:03;16.20;99.90
5705;DHT22;2877;48.238;11.160;2023-05-29T06:47:28;16.40;99.90
5705;DHT22;2877;48.238;11.160;2023-05-29T06:49:54;16.50;99.90
5705;DHT22;2877;48.238;11.160;2023-05-29T06:52:19;16.60;99.90
5705;DHT22;2877;48.238;11.160;2023-05-29T06:54:45;16.70;99.90
5705;DHT22;2877;48.238;11.160;2023-05-29T06:57:10;16.70;99.90
5705;DHT22;2877;48.238;11.160;2023-05-29T06:59:36;16.80;99.90
5705;DHT22;2877;48.238;11.160;2023-05-29T07:02:01;16.80;99.90
5705;DHT22;2877;48.238;11.160;2023-05-29T07:04:27;16.90;99.90
5705;DHT22;2877;48.238;11.160;2023-05-29T07:06:52;17.00;99.90
5705;DHT22;2877;48.238;11.160;2023-05-29T07:09:18;17.20;99.90
5705;DHT22;2877;48.238;11.160;2023-05-29T07:11:43;17.30;99.90
5705;DHT22;2877;48.238;11.160;2023-05-29T07:14:09;17.40;99.90
5705;DHT22;2877;48.238;11.160;2023-05-29T07:16:35;17.50;99.90
5705;DHT22;2877;48.238;11.160;2023-05-29T07:19:00;17.50;99.90
5705;DHT22;2877;48.238;11.160;2023-05-29T07:21:26;17.50;99.90
5705;DHT22;2877;48.238;11.160;2023-05-29T07:23:51;17.70;99.90
5705;DHT22;2877;48.238;11.160;2023-05-29T07:26:17;17.90;99.90
5705;DHT22;2877;48.238;11.160;2023-05-29T07:28:42;18.00;99.90
5705;DHT22;2877;48.238;11.160;2023-05-29T07:31:08;18.20;99.90
5705;DHT22;2877;48.238;11.160;2023-05-29T07:33:35;18.40;99.90
5705;DHT22;2877;48.238;11.160;2023-05-29T07:36:00;18.50;99.90
5705;DHT22;2877;48.238;11.160;2023-05-29T07:38:26;18.60;99.90
5705;DHT22;2877;48.238;11.160;2023-05-29T07:40:51;18.50;99.90
5705;DHT22;2877;48.238;11.160;2023-05-29T07:43:17;18.60;99.90
5705;DHT22;2877;48.238;11.160;2023-05-29T07:45:42;18.60;98.60
5705;DHT22;2877;48.238;11.160;2023-05-29T07:48:42;18.70;98.40
5705;DHT22;2877;48.238;11.160;2023-05-29T07:51:08;18.60;98.80
5705;DHT22;2877;48.238;11.160;2023-05-29T07:53:36;18.70;98.90
5705;DHT22;2877;48.238;11.160;2023-05-29T07:56:01;18.90;98.30
5705;DHT22;2877;48.238;11.160;2023-05-29T07:58:27;19.10;98.30
5705;DHT22;2877;48.238;11.160;2023-05-29T08:00:52;19.10;98.20
5705;DHT22;2877;48.238;11.160;2023-05-29T08:03:18;19.20;97.90
5705;DHT22;2877;48.238;11.160;2023-05-29T08:05:44;19.30;98.00
5705;DHT22;2877;48.238;11.160;2023-05-29T08:08:09;19.10;98.40
5705;DHT22;2877;48.238;11.160;2023-05-29T08:10:38;19.10;98.40
5705;DHT22;2877;48.238;11.160;2023-05-29T08:13:03;19.20;98.10
5705;DHT22;2877;48.238;11.160;2023-05-29T08:15:29;19.40;96.30
5705;DHT22;2877;48.238;11.160;2023-05-29T08:17:56;19.40;96.60
5705;DHT22;2877;48.238;11.160;2023-05-29T08:20:22;19.80;95.20
5705;DHT22;2877;48.238;11.160;2023-05-29T08:22:47;20.00;94.10
5705;DHT22;2877;48.238;11.160;2023-05-29T08:25:13;20.10;93.80
5705;DHT22;2877;48.238;11.160;2023-05-29T08:27:39;20.30;93.20
5705;DHT22;2877;48.238;11.160;2023-05-29T08:30:05;20.60;93.20
5705;DHT22;2877;48.238;11.160;2023-05-29T08:32:31;20.60;93.40
5705;DHT22;2877;48.238;11.160;2023-05-29T08:34:56;20.80;92.30
5705;DHT22;2877;48.238;11.160;2023-05-29T08:37:22;20.80;92.80
5705;DHT22;2877;48.238;11.160;2023-05-29T08:39:48;20.80;92.80
5705;DHT22;2877;48.238;11.160;2023-05-29T08:42:21;20.70;92.30
5705;DHT22;2877;48.238;11.160;2023-05-29T08:44:52;20.70;93.00
5705;DHT22;2877;48.238;11.160;2023-05-29T08:47:21;20.80;92.10
5705;DHT22;2877;48.238;11.160;2023-05-29T08:49:52;21.10;90.90
5705;DHT22;2877;48.238;11.160;2023-05-29T08:52:23;21.20;91.70
5705;DHT22;2877;48.238;11.160;2023-05-29T08:54:53;21.30;90.50
5705;DHT22;2877;48.238;11.160;2023-05-29T08:57:20;21.30;90.20
5705;DHT22;2877;48.238;11.160;2023-05-29T08:59:47;21.30;90.40
5705;DHT22;2877;48.238;11.160;2023-05-29T09:02:15;21.40;89.90
5705;DHT22;2877;48.238;11.160;2023-05-29T09:04:44;21.60;90.50
5705;DHT22;2877;48.238;11.160;2023-05-29T09:07:19;21.50;87.80
5705;DHT22;2877;48.238;11.160;2023-05-29T09:09:45;21.70;85.20
5705;DHT22;2877;48.238;11.160;2023-05-29T09:12:11;21.70;88.50
5705;DHT22;2877;48.238;11.160;2023-05-29T09:14:42;21.70;86.00
5705;DHT22;2877;48.238;11.160;2023-05-29T09:17:10;21.90;82.30
5705;DHT22;2877;48.238;11.160;2023-05-29T09:19:37;22.10;85.80
5705;DHT22;2877;48.238;11.160;2023-05-29T09:22:05;22.00;82.90
5705;DHT22;2877;48.238;11.160;2023-05-29T09:24:35;21.90;84.20
5705;DHT22;2877;48.238;11.160;2023-05-29T09:27:04;22.10;83.20
5705;DHT22;2877;48.238;11.160;2023-05-29T09:29:31;22.10;81.90
5705;DHT22;2877;48.238;11.160;2023-05-29T09:31:57;22.00;82.90
5705;DHT22;2877;48.238;11.160;2023-05-29T09:34:24;22.30;77.50
5705;DHT22;2877;48.238;11.160;2023-05-29T09:36:52;22.30;76.10
5705;DHT22;2877;48.238;11.160;2023-05-29T09:39:18;22.50;78.00
5705;DHT22;2877;48.238;11.160;2023-05-29T09:41:44;22.60;76.70
5705;DHT22;2877;48.238;11.160;2023-05-29T09:44:14;22.80;74.80
5705;DHT22;2877;48.238;11.160;2023-05-29T09:46:41;22.80;73.50
5705;DHT22;2877;48.238;11.160;2023-05-29T09:49:12;23.20;74.10
5705;DHT22;2877;48.238;11.160;2023-05-29T09:51:38;23.20;73.20
5705;DHT22;2877;48.238;11.160;2023-05-29T09:54:17;23.10;69.90
5705;DHT22;2877;48.238;11.160;2023-05-29T09:56:43;23.30;72.00
5705;DHT22;2877;48.238;11.160;2023-05-29T09:59:13;23.60;70.20
5705;DHT22;2877;48.238;11.160;2023-05-29T10:01:43;23.50;69.20
5705;DHT22;2877;48.238;11.160;2023-05-29T10:04:12;23.30;68.70
5705;DHT22;2877;48.238;11.160;2023-05-29T10:06:43;23.50;70.00
5705;DHT22;2877;48.238;11.160;2023-05-29T10:09:12;23.70;67.80
5705;DHT22;2877;48.238;11.160;2023-05-29T10:11:41;23.50;66.70
5705;DHT22;2877;48.238;11.160;2023-05-29T10:14:10;23.40;68.90
5705;DHT22;2877;48.238;11.160;2023-05-29T10:16:42;23.20;70.20
5705;DHT22;2877;48.238;11.160;2023-05-29T10:19:12;23.20;67.50
5705;DHT22;2877;48.238;11.160;2023-05-29T10:21:40;23.30;67.10
5705;DHT22;2877;48.238;11.160;2023-05-29T10:24:07;23.20;67.20
5705;DHT22;2877;48.238;11.160;2023-05-29T10:26:37;23.70;67.70
5705;DHT22;2877;48.238;11.160;2023-05-29T10:29:35;24.20;63.60
5705;DHT22;2877;48.238;11.160;2023-05-29T10:35:30;24.60;61.30
5705;DHT22;2877;48.238;11.160;2023-05-29T10:38:13;24.70;61.10
5705;DHT22;2877;48.238;11.160;2023-05-29T10:40:39;24.50;59.10
5705;DHT22;2877;48.238;11.160;2023-05-29T10:43:05;24.50;60.30
5705;DHT22;2877;48.238;11.160;2023-05-29T10:50:38;24.90;57.40
5705;DHT22;2877;48.238;11.160;2023-05-29T10:53:10;25.20;59.00
5705;DHT22;2877;48.238;11.160;2023-05-29T10:55:39;25.40;59.10
5705;DHT22;2877;48.238;11.160;2023-05-29T10:58:25;25.50;55.60
5705;DHT22;2877;48.238;11.160;2023-05-29T11:00:54;25.40;55.90
5705;DHT22;2877;48.238;11.160;2023-05-29T11:03:29;25.30;56.40
5705;DHT22;2877;48.238;11.160;2023-05-29T11:06:04;25.40;56.80
5705;DHT22;2877;48.238;11.160;2023-05-29T11:08:47;25.60;57.70
5705;DHT22;2877;48.238;11.160;2023-05-29T11:14:00;25.70;55.40
5705;DHT22;2877;48.238;11.160;2023-05-29T11:18:59;25.10;58.60
5705;DHT22;2877;48.238;11.160;2023-05-29T11:21:34;25.00;57.20
5705;DHT22;2877;48.238;11.160;2023-05-29T11:24:01;25.10;57.10
5705;DHT22;2877;48.238;11.160;2023-05-29T11:26:32;25.50;55.90
5705;DHT22;2877;48.238;11.160;2023-05-29T11:29:03;26.10;52.70
5705;DHT22;2877;48.238;11.160;2023-05-29T11:31:37;26.50;52.90
5705;DHT22;2877;48.238;11.160;2023-05-29T11:34:03;26.60;51.70
5705;DHT22;2877;48.238;11.160;2023-05-29T11:36:31;26.70;49.60
5705;DHT22;2877;48.238;11.160;2023-05-29T11:38:58;26.90;51.10
5705;DHT22;2877;48.238;11.160;2023-05-29T11:41:24;27.00;48.60
5705;DHT22;2877;48.238;11.160;2023-05-29T11:44:01;27.00;49.70
5705;DHT22;2877;48.238;11.160;2023-05-29T11:46:28;27.00;50.50
5705;DHT22;2877;48.238;11.160;2023-05-29T11:48:56;27.40;50.40
5705;DHT22;2877;48.238;11.160;2023-05-29T11:51:22;27.40;48.60
5705;DHT22;2877;48.238;11.160;2023-05-29T11:53:48;27.40;44.50
5705;DHT22;2877;48.238;11.160;2023-05-29T11:56:14;27.60;45.00
5705;DHT22;2877;48.238;11.160;2023-05-29T11:58:40;28.00;47.50
5705;DHT22;2877;48.238;11.160;2023-05-29T12:01:07;28.30;47.20
5705;DHT22;2877;48.238;11.160;2023-05-29T12:03:42;28.50;44.70
5705;DHT22;2877;48.238;11.160;2023-05-29T12:06:33;28.70;44.30
5705;DHT22;2877;48.238;11.160;2023-05-29T12:08:59;28.70;43.30
5705;DHT22;2877;48.238;11.160;2023-05-29T12:11:26;28.80;43.50
5705;DHT22;2877;48.238;11.160;2023-05-29T12:13:58;28.80;45.30
5705;DHT22;2877;48.238;11.160;2023-05-29T12:16:29;28.70;45.70
5705;DHT22;2877;48.238;11.160;2023-05-29T12:18:56;28.50;44.50
5705;DHT22;2877;48.238;11.160;2023-05-29T12:21:22;28.50;44.80
5705;DHT22;2877;48.238;11.160;2023-05-29T12:23:48;28.50;43.20
5705;DHT22;2877;48.238;11.160;2023-05-29T12:26:13;28.60;46.00
5705;DHT22;2877;48.238;11.160;2023-05-29T12:28:44;28.30;46.80
5705;DHT22;2877;48.238;11.160;2023-05-29T12:31:10;28.40;47.30
5705;DHT22;2877;48.238;11.160;2023-05-29T12:33:40;28.60;47.20
5705;DHT22;2877;48.238;11.160;2023-05-29T12:36:08;28.40;45.60
5705;DHT22;2877;48.238;11.160;2023-05-29T12:38:49;28.20;46.20
5705;DHT22;2877;48.238;11.160;2023-05-29T12:41:41;27.80;47.80
5705;DHT22;2877;48.238;11.160;2023-05-29T12:44:07;27.90;46.70
5705;DHT22;2877;48.238;11.160;2023-05-29T12:46:39;27.50;46.30
5705;DHT22;2877;48.238;11.160;2023-05-29T12:49:12;27.80;47.50
5705;DHT22;2877;48.238;11.160;2023-05-29T12:51:41;28.40;47.50
5705;DHT22;2877;48.238;11.160;2023-05-29T12:54:07;28.70;45.60
5705;DHT22;2877;48.238;11.160;2023-05-29T12:56:32;28.80;44.30
5705;DHT22;2877;48.238;11.160;2023-05-29T12:58:58;29.30;43.80
5705;DHT22;2877;48.238;11.160;2023-05-29T13:01:23;29.80;44.50
5705;DHT22;2877;48.238;11.160;2023-05-29T13:03:49;30.20;41.60
5705;DHT22;2877;48.238;11.160;2023-05-29T13:06:15;30.40;41.90
5705;DHT22;2877;48.238;11.160;2023-05-29T13:08:41;30.70;42.30
5705;DHT22;2877;48.238;11.160;2023-05-29T13:11:07;31.30;40.70
5705;DHT22;2877;48.238;11.160;2023-05-29T13:13:32;31.60;40.90
5705;DHT22;2877;48.238;11.160;2023-05-29T13:15:58;32.10;40.00
5705;DHT22;2877;48.238;11.160;2023-05-29T13:18:23;32.40;40.00
5705;DHT22;2877;48.238;11.160;2023-05-29T13:20:49;32.50;38.60
5705;DHT22;2877;48.238;11.160;2023-05-29T13:23:14;31.90;37.00
5705;DHT22;2877;48.238;11.160;2023-05-29T13:25:40;32.10;38.20
5705;DHT22;2877;48.238;11.160;2023-05-29T13:28:05;32.20;36.10
5705;DHT22;2877;48.238;11.160;2023-05-29T13:30:31;32.50;36.80
5705;DHT22;2877;48.238;11.160;2023-05-29T13:32:56;32.80;35.90
5705;DHT22;2877;48.238;11.160;2023-05-29T13:35:22;33.20;36.60
5705;DHT22;2877;48.238;11.160;2023-05-29T13:37:47;33.10;35.50
5705;DHT22;2877;48.238;11.160;2023-05-29T13:40:14;32.80;36.60
5705;DHT22;2877;48.238;11.160;2023-05-29T13:42:40;32.80;36.30
5705;DHT22;2877;48.238;11.160;2023-05-29T13:45:07;33.30;36.90
5705;DHT22;2877;48.238;11.160;2023-05-29T13:47:33;33.20;35.60
5705;DHT22;2877;48.238;11.160;2023-05-29T13:49:59;32.80;36.20
5705;DHT22;2877;48.238;11.160;2023-05-29T13:52:26;32.80;36.80
5705;DHT22;2877;48.238;11.160;2023-05-29T13:54:51;33.20;36.30
5705;DHT22;2877;48.238;11.160;2023-05-29T13:57:17;33.80;35.60
5705;DHT22;2877;48.238;11.160;2023-05-29T13:59:43;34.20;35.40
5705;DHT22;2877;48.238;11.160;2023-05-29T14:02:08;34.10;34.30
5705;DHT22;2877;48.238;11.160;2023-05-29T14:04:34;34.20;34.80
5705;DHT22;2877;48.238;11.160;2023-05-29T14:07:00;34.30;33.90
5705;DHT22;2877;48.238;11.160;2023-05-29T14:09:26;34.20;33.70
5705;DHT22;2877;48.238;11.160;2023-05-29T14:11:55;34.20;34.70
5705;DHT22;2877;48.238;11.160;2023-05-29T14:14:21;34.80;34.20
5705;DHT22;2877;48.238;11.160;2023-05-29T14:16:48;34.00;34.10
5705;DHT22;2877;48.238;11.160;2023-05-29T14:19:14;34.40;33.20
5705;DHT22;2877;48.238;11.160;2023-05-29T14:21:40;34.10;35.10
5705;DHT22;2877;48.238;11.160;2023-05-29T14:24:05;33.70;34.40
5705;DHT22;2877;48.238;11.160;2023-05-29T14:26:32;34.10;34.90
5705;DHT22;2877;48.238;11.160;2023-05-29T14:28:58;33.50;34.80
5705;DHT22;2877;48.238;11.160;2023-05-29T14:31:23;33.50;34.70
5705;DHT22;2877;48.238;11.160;2023-05-29T14:33:49;34.30;35.60
5705;DHT22;2877;48.238;11.160;2023-05-29T14:36:14;34.10;34.10
5705;DHT22;2877;48.238;11.160;2023-05-29T14:38:40;33.40;34.50
5705;DHT22;2877;48.238;11.160;2023-05-29T14:41:06;33.30;34.30
5705;DHT22;2877;48.238;11.160;2023-05-29T14:43:32;33.80;33.70
5705;DHT22;2877;48.238;11.160;2023-05-29T14:45:58;34.60;33.10
5705;DHT22;2877;48.238;11.160;2023-05-29T14:48:23;35.40;32.90
5705;DHT22;2877;48.238;11.160;2023-05-29T14:50:49;35.20;31.90
5705;DHT22;2877;48.238;11.160;2023-05-29T14:53:14;35.30;31.60
5705;DHT22;2877;48.238;11.160;2023-05-29T14:55:40;34.90;32.40
5705;DHT22;2877;48.238;11.160;2023-05-29T14:58:05;35.10;32.60
5705;DHT22;2877;48.238;11.160;2023-05-29T15:00:31;35.10;32.50
5705;DHT22;2877;48.238;11.160;2023-05-29T15:02:57;34.60;32.70
5705;DHT22;2877;48.238;11.160;2023-05-29T15:05:25;34.10;33.50
5705;DHT22;2877;48.238;11.160;2023-05-29T15:07:51;33.60;33.40
5705;DHT22;2877;48.238;11.160;2023-05-29T15:10:17;33.20;34.90
5705;DHT22;2877;48.238;11.160;2023-05-29T15:12:45;31.80;35.20
5705;DHT22;2877;48.238;11.160;2023-05-29T15:15:11;30.50;38.00
5705;DHT22;2877;48.238;11.160;2023-05-29T15:17:36;29.40;37.70
5705;DHT22;2877;48.238;11.160;2023-05-29T15:20:04;28.80;40.00
5705;DHT22;2877;48.238;11.160;2023-05-29T15:22:29;28.10;40.50
5705;DHT22;2877;48.238;11.160;2023-05-29T15:24:55;27.40;42.30
5705;DHT22;2877;48.238;11.160;2023-05-29T15:27:21;26.80;42.40
5705;DHT22;2877;48.238;11.160;2023-05-29T15:29:46;26.40;44.40
5705;DHT22;2877;48.238;11.160;2023-05-29T15:32:12;25.90;45.70
5705;DHT22;2877;48.238;11.160;2023-05-29T15:34:37;25.70;46.00
5705;DHT22;2877;48.238;11.160;2023-05-29T15:37:05;25.70;45.80
5705;DHT22;2877;48.238;11.160;2023-05-29T15:39:31;25.80;45.90
5705;DHT22;2877;48.238;11.160;2023-05-29T15:41:56;25.80;44.80
5705;DHT22;2877;48.238;11.160;2023-05-29T15:44:22;25.80;45.10
5705;DHT22;2877;48.238;11.160;2023-05-29T15:46:47;26.00;44.10
5705;DHT22;2877;48.238;11.160;2023-05-29T15:49:13;26.10;44.80
5705;DHT22;2877;48.238;11.160;2023-05-29T15:51:41;25.90;45.50
5705;DHT22;2877;48.238;11.160;2023-05-29T15:54:08;26.00;45.90
5705;DHT22;2877;48.238;11.160;2023-05-29T15:56:33;26.10;45.20
5705;DHT22;2877;48.238;11.160;2023-05-29T15:58:59;26.20;46.00
5705;DHT22;2877;48.238;11.160;2023-05-29T16:01:25;26.40;46.60
5705;DHT22;2877;48.238;11.160;2023-05-29T16:03:50;26.60;43.50
5705;DHT22;2877;48.238;11.160;2023-05-29T16:06:16;26.60;44.00
5705;DHT22;2877;48.238;11.160;2023-05-29T16:08:42;27.00;45.40
5705;DHT22;2877;48.238;11.160;2023-05-29T16:11:08;27.80;42.90